sensor_id;sensor_type;location;lat;lon;timestamp;P1;durP1;ratioP1;P2;durP2;ratioP2
46411;SDS011;32113;42.012;24.870;2022-07-10T00:01:41;4.63;;;2.58;;
46411;SDS011;32113;42.012;24.870;2022-07-10T00:04:06;5.20;;;2.83;;
46411;SDS011;32113;42.012;24.870;2022-07-10T00:06:32;5.03;;;2.67;;
46411;SDS011;32113;42.012;24.870;2022-07-10T00:08:57;4.72;;;2.50;;
46411;SDS011;32113;42.012;24.870;2022-07-10T00:11:23;2.70;;;2.35;;
46411;SDS011;32113;42.012;24.870;2022-07-10T00:13:48;4.28;;;2.47;;
46411;SDS011;32113;42.012;24.870;2022-07-10T00:16:13;3.28;;;2.50;;
46411;SDS011;32113;42.012;24.870;2022-07-10T00:18:39;3.97;;;2.70;;
46411;SDS011;32113;42.012;24.870;2022-07-10T00:21:05;2.47;;;2.25;;
46411;SDS011;32113;42.012;24.870;2022-07-10T00:23:31;4.32;;;2.50;;
46411;SDS011;32113;42.012;24.870;2022-07-10T00:25:56;3.72;;;2.60;;
46411;SDS011;32113;42.012;24.870;2022-07-10T00:28:22;5.07;;;2.83;;
46411;SDS011;32113;42.012;24.870;2022-07-10T00:30:48;2.85;;;2.50;;
46411;SDS011;32113;42.012;24.870;2022-07-10T00:33:13;4.20;;;2.47;;
46411;SDS011;32113;42.012;24.870;2022-07-10T00:35:39;6.07;;;2.75;;
46411;SDS011;32113;42.012;24.870;2022-07-10T00:38:04;5.97;;;2.58;;
46411;SDS011;32113;42.012;24.870;2022-07-10T00:40:29;3.75;;;2.83;;
46411;SDS011;32113;42.012;24.870;2022-07-10T00:42:55;3.03;;;2.63;;
46411;SDS011;32113;42.012;24.870;2022-07-10T00:45:20;4.05;;;2.83;;
46411;SDS011;32113;42.012;24.870;2022-07-10T00:47:46;4.10;;;2.65;;
46411;SDS011;32113;42.012;24.870;2022-07-10T00:50:11;6.85;;;2.92;;
46411;SDS011;32113;42.012;24.870;2022-07-10T00:52:38;3.38;;;3.00;;
46411;SDS011;32113;42.012;24.870;2022-07-10T00:55:04;8.10;;;2.92;;
46411;SDS011;32113;42.012;24.870;2022-07-10T00:57:30;5.05;;;3.08;;
46411;SDS011;32113;42.012;24.870;2022-07-10T00:59:57;4.93;;;2.97;;
46411;SDS011;32113;42.012;24.870;2022-07-10T01:02:23;4.90;;;2.83;;
46411;SDS011;32113;42.012;24.870;2022-07-10T01:04:48;3.58;;;2.67;;
46411;SDS011;32113;42.012;24.870;2022-07-10T01:07:14;2.88;;;2.58;;
46411;SDS011;32113;42.012;24.870;2022-07-10T01:09:41;4.43;;;2.90;;
46411;SDS011;32113;42.012;24.870;2022-07-10T01:12:07;3.13;;;2.70;;
46411;SDS011;32113;42.012;24.870;2022-07-10T01:14:33;3.00;;;2.65;;
46411;SDS011;32113;42.012;24.870;2022-07-10T01:17:00;3.47;;;2.80;;
46411;SDS011;32113;42.012;24.870;2022-07-10T01:19:26;3.47;;;2.92;;
46411;SDS011;32113;42.012;24.870;2022-07-10T01:21:52;5.03;;;3.05;;
46411;SDS011;32113;42.012;24.870;2022-07-10T01:24:18;3.03;;;2.70;;
46411;SDS011;32113;42.012;24.870;2022-07-10T01:26:43;6.93;;;2.72;;
46411;SDS011;32113;42.012;24.870;2022-07-10T01:29:09;4.32;;;2.90;;
46411;SDS011;32113;42.012;24.870;2022-07-10T01:31:36;7.73;;;2.73;;
46411;SDS011;32113;42.012;24.870;2022-07-10T01:34:04;4.75;;;3.00;;
46411;SDS011;32113;42.012;24.870;2022-07-10T01:36:31;6.32;;;2.80;;
46411;SDS011;32113;42.012;24.870;2022-07-10T01:38:57;6.82;;;2.63;;
46411;SDS011;32113;42.012;24.870;2022-07-10T01:41:24;2.70;;;2.45;;
46411;SDS011;32113;42.012;24.870;2022-07-10T01:43:50;4.30;;;3.03;;
46411;SDS011;32113;42.012;24.870;2022-07-10T01:46:16;3.92;;;3.08;;
46411;SDS011;32113;42.012;24.870;2022-07-10T01:48:42;3.88;;;2.72;;
46411;SDS011;32113;42.012;24.870;2022-07-10T01:51:08;3.60;;;2.50;;
46411;SDS011;32113;42.012;24.870;2022-07-10T01:53:35;4.15;;;2.90;;
46411;SDS011;32113;42.012;24.870;2022-07-10T01:56:03;4.50;;;2.85;;
46411;SDS011;32113;42.012;24.870;2022-07-10T01:58:30;3.88;;;2.58;;
46411;SDS011;32113;42.012;24.870;2022-07-10T02:00:56;3.53;;;2.63;;
46411;SDS011;32113;42.012;24.870;2022-07-10T02:03:22;4.85;;;2.97;;
46411;SDS011;32113;42.012;24.870;2022-07-10T02:06:06;3.40;;;2.50;;
46411;SDS011;32113;42.012;24.870;2022-07-10T02:08:32;5.10;;;2.70;;
46411;SDS011;32113;42.012;24.870;2022-07-10T02:10:57;4.20;;;2.53;;
46411;SDS011;32113;42.012;24.870;2022-07-10T02:13:23;3.28;;;2.55;;
46411;SDS011;32113;42.012;24.870;2022-07-10T02:15:52;5.32;;;2.65;;
46411;SDS011;32113;42.012;24.870;2022-07-10T02:18:21;5.30;;;2.85;;
46411;SDS011;32113;42.012;24.870;2022-07-10T02:20:48;5.80;;;3.35;;
46411;SDS011;32113;42.012;24.870;2022-07-10T02:23:13;4.30;;;3.33;;
46411;SDS011;32113;42.012;24.870;2022-07-10T02:25:39;3.83;;;2.90;;
46411;SDS011;32113;42.012;24.870;2022-07-10T02:28:04;3.33;;;2.80;;
46411;SDS011;32113;42.012;24.870;2022-07-10T02:30:30;4.70;;;3.25;;
46411;SDS011;32113;42.012;24.870;2022-07-10T02:32:55;5.85;;;2.83;;
46411;SDS011;32113;42.012;24.870;2022-07-10T02:35:21;6.32;;;2.83;;
46411;SDS011;32113;42.012;24.870;2022-07-10T02:37:46;7.95;;;2.65;;
46411;SDS011;32113;42.012;24.870;2022-07-10T02:40:12;4.43;;;3.15;;
46411;SDS011;32113;42.012;24.870;2022-07-10T02:42:37;5.45;;;3.13;;
46411;SDS011;32113;42.012;24.870;2022-07-10T02:45:03;7.25;;;3.40;;
46411;SDS011;32113;42.012;24.870;2022-07-10T02:47:29;2.92;;;2.63;;
46411;SDS011;32113;42.012;24.870;2022-07-10T02:49:54;3.78;;;3.00;;
46411;SDS011;32113;42.012;24.870;2022-07-10T02:52:20;8.85;;;3.28;;
46411;SDS011;32113;42.012;24.870;2022-07-10T02:54:45;3.80;;;3.08;;
46411;SDS011;32113;42.012;24.870;2022-07-10T02:57:10;4.20;;;3.00;;
46411;SDS011;32113;42.012;24.870;2022-07-10T02:59:36;9.00;;;3.15;;
46411;SDS011;32113;42.012;24.870;2022-07-10T03:02:01;3.88;;;2.88;;
46411;SDS011;32113;42.012;24.870;2022-07-10T03:04:27;5.40;;;3.53;;
46411;SDS011;32113;42.012;24.870;2022-07-10T03:06:52;5.13;;;3.50;;
46411;SDS011;32113;42.012;24.870;2022-07-10T03:09:18;4.90;;;3.10;;
46411;SDS011;32113;42.012;24.870;2022-07-10T03:11:44;3.53;;;3.15;;
46411;SDS011;32113;42.012;24.870;2022-07-10T03:14:09;4.38;;;3.20;;
46411;SDS011;32113;42.012;24.870;2022-07-10T03:16:34;5.20;;;3.50;;
46411;SDS011;32113;42.012;24.870;2022-07-10T03:19:00;5.05;;;3.85;;
46411;SDS011;32113;42.012;24.870;2022-07-10T03:21:25;3.80;;;2.83;;
46411;SDS011;32113;42.012;24.870;2022-07-10T03:23:51;4.95;;;3.22;;
46411;SDS011;32113;42.012;24.870;2022-07-10T03:26:16;6.65;;;3.13;;
46411;SDS011;32113;42.012;24.870;2022-07-10T03:28:42;5.50;;;3.15;;
46411;SDS011;32113;42.012;24.870;2022-07-10T03:31:07;3.28;;;2.97;;
46411;SDS011;32113;42.012;24.870;2022-07-10T03:33:32;5.63;;;3.05;;
46411;SDS011;32113;42.012;24.870;2022-07-10T03:35:58;5.85;;;3.40;;
46411;SDS011;32113;42.012;24.870;2022-07-10T03:38:26;4.55;;;3.00;;
46411;SDS011;32113;42.012;24.870;2022-07-10T03:40:52;2.90;;;2.65;;
46411;SDS011;32113;42.012;24.870;2022-07-10T03:43:17;4.15;;;2.95;;
46411;SDS011;32113;42.012;24.870;2022-07-10T03:45:42;3.42;;;3.10;;
46411;SDS011;32113;42.012;24.870;2022-07-10T03:48:08;3.95;;;3.05;;
46411;SDS011;32113;42.012;24.870;2022-07-10T03:50:33;3.67;;;2.67;;
46411;SDS011;32113;42.012;24.870;2022-07-10T03:52:59;6.07;;;3.10;;
46411;SDS011;32113;42.012;24.870;2022-07-10T03:55:24;6.22;;;3.08;;
46411;SDS011;32113;42.012;24.870;2022-07-10T03:57:49;6.30;;;3.17;;
46411;SDS011;32113;42.012;24.870;2022-07-10T04:00:28;4.88;;;3.65;;
46411;SDS011;32113;42.012;24.870;2022-07-10T04:03:00;10.63;;;3.78;;
46411;SDS011;32113;42.012;24.870;2022-07-10T04:05:28;9.20;;;4.90;;
46411;SDS011;32113;42.012;24.870;2022-07-10T04:07:54;11.25;;;5.72;;
46411;SDS011;32113;42.012;24.870;2022-07-10T04:10:24;7.80;;;3.70;;
46411;SDS011;32113;42.012;24.870;2022-07-10T04:12:50;7.53;;;3.35;;
46411;SDS011;32113;42.012;24.870;2022-07-10T04:15:16;6.18;;;3.60;;
46411;SDS011;32113;42.012;24.870;2022-07-10T04:17:42;4.88;;;2.88;;
46411;SDS011;32113;42.012;24.870;2022-07-10T04:20:08;8.23;;;3.33;;
46411;SDS011;32113;42.012;24.870;2022-07-10T04:22:34;4.47;;;2.67;;
46411;SDS011;32113;42.012;24.870;2022-07-10T04:24:59;4.47;;;2.80;;
46411;SDS011;32113;42.012;24.870;2022-07-10T04:27:25;4.85;;;2.95;;
46411;SDS011;32113;42.012;24.870;2022-07-10T04:29:50;5.50;;;2.90;;
46411;SDS011;32113;42.012;24.870;2022-07-10T04:32:16;5.93;;;2.88;;
46411;SDS011;32113;42.012;24.870;2022-07-10T04:34:42;5.40;;;3.17;;
46411;SDS011;32113;42.012;24.870;2022-07-10T04:37:07;8.05;;;3.20;;
46411;SDS011;32113;42.012;24.870;2022-07-10T04:39:34;6.38;;;3.38;;
46411;SDS011;32113;42.012;24.870;2022-07-10T04:42:00;4.95;;;3.33;;
46411;SDS011;32113;42.012;24.870;2022-07-10T04:44:26;7.47;;;3.97;;
46411;SDS011;32113;42.012;24.870;2022-07-10T04:46:52;5.22;;;3.60;;
46411;SDS011;32113;42.012;24.870;2022-07-10T04:49:18;4.43;;;3.17;;
46411;SDS011;32113;42.012;24.870;2022-07-10T04:51:43;4.00;;;3.03;;
46411;SDS011;32113;42.012;24.870;2022-07-10T04:54:09;5.85;;;3.17;;
46411;SDS011;32113;42.012;24.870;2022-07-10T04:56:34;4.85;;;2.80;;
46411;SDS011;32113;42.012;24.870;2022-07-10T04:58:59;5.10;;;3.13;;
46411;SDS011;32113;42.012;24.870;2022-07-10T05:01:25;5.50;;;3.30;;
46411;SDS011;32113;42.012;24.870;2022-07-10T05:03:50;4.60;;;4.13;;
46411;SDS011;32113;42.012;24.870;2022-07-10T05:06:16;4.25;;;3.80;;
46411;SDS011;32113;42.012;24.870;2022-07-10T05:08:41;4.93;;;3.95;;
46411;SDS011;32113;42.012;24.870;2022-07-10T05:11:06;7.20;;;4.20;;
46411;SDS011;32113;42.012;24.870;2022-07-10T05:13:32;6.57;;;4.18;;
46411;SDS011;32113;42.012;24.870;2022-07-10T05:15:57;4.82;;;4.25;;
46411;SDS011;32113;42.012;24.870;2022-07-10T05:18:23;6.10;;;4.20;;
46411;SDS011;32113;42.012;24.870;2022-07-10T05:20:48;4.93;;;3.90;;
46411;SDS011;32113;42.012;24.870;2022-07-10T05:23:14;7.35;;;3.85;;
46411;SDS011;32113;42.012;24.870;2022-07-10T05:25:40;4.80;;;3.20;;
46411;SDS011;32113;42.012;24.870;2022-07-10T05:28:06;4.57;;;3.60;;
46411;SDS011;32113;42.012;24.870;2022-07-10T05:30:32;3.90;;;3.50;;
46411;SDS011;32113;42.012;24.870;2022-07-10T05:32:58;5.18;;;3.50;;
46411;SDS011;32113;42.012;24.870;2022-07-10T05:35:23;4.97;;;3.72;;
46411;SDS011;32113;42.012;24.870;2022-07-10T05:37:49;5.07;;;3.47;;
46411;SDS011;32113;42.012;24.870;2022-07-10T05:40:14;3.35;;;3.05;;
46411;SDS011;32113;42.012;24.870;2022-07-10T05:42:40;5.40;;;3.55;;
46411;SDS011;32113;42.012;24.870;2022-07-10T05:45:05;4.28;;;3.72;;
46411;SDS011;32113;42.012;24.870;2022-07-10T05:47:32;5.90;;;3.55;;
46411;SDS011;32113;42.012;24.870;2022-07-10T05:49:58;7.20;;;4.00;;
46411;SDS011;32113;42.012;24.870;2022-07-10T05:52:24;4.07;;;3.10;;
46411;SDS011;32113;42.012;24.870;2022-07-10T05:54:49;9.02;;;3.78;;
46411;SDS011;32113;42.012;24.870;2022-07-10T05:57:16;5.60;;;4.05;;
46411;SDS011;32113;42.012;24.870;2022-07-10T05:59:41;6.68;;;4.25;;
46411;SDS011;32113;42.012;24.870;2022-07-10T06:02:07;6.43;;;3.28;;
46411;SDS011;32113;42.012;24.870;2022-07-10T06:04:32;4.28;;;3.40;;
46411;SDS011;32113;42.012;24.870;2022-07-10T06:06:59;3.00;;;2.65;;
46411;SDS011;32113;42.012;24.870;2022-07-10T06:09:24;7.35;;;3.30;;
46411;SDS011;32113;42.012;24.870;2022-07-10T06:11:49;5.75;;;3.30;;
46411;SDS011;32113;42.012;24.870;2022-07-10T06:14:15;6.65;;;3.70;;
46411;SDS011;32113;42.012;24.870;2022-07-10T06:16:41;4.45;;;3.50;;
46411;SDS011;32113;42.012;24.870;2022-07-10T06:19:07;4.85;;;3.63;;
46411;SDS011;32113;42.012;24.870;2022-07-10T06:21:32;3.88;;;3.35;;
46411;SDS011;32113;42.012;24.870;2022-07-10T06:23:57;5.80;;;3.53;;
46411;SDS011;32113;42.012;24.870;2022-07-10T06:26:23;6.10;;;3.67;;
46411;SDS011;32113;42.012;24.870;2022-07-10T06:28:49;3.70;;;3.22;;
46411;SDS011;32113;42.012;24.870;2022-07-10T06:31:14;3.72;;;3.20;;
46411;SDS011;32113;42.012;24.870;2022-07-10T06:33:40;5.97;;;3.58;;
46411;SDS011;32113;42.012;24.870;2022-07-10T06:36:05;5.70;;;3.20;;
46411;SDS011;32113;42.012;24.870;2022-07-10T06:38:31;5.30;;;3.00;;
46411;SDS011;32113;42.012;24.870;2022-07-10T06:40:57;3.75;;;3.00;;
46411;SDS011;32113;42.012;24.870;2022-07-10T06:43:22;3.83;;;2.95;;
46411;SDS011;32113;42.012;24.870;2022-07-10T06:45:47;4.55;;;3.22;;
46411;SDS011;32113;42.012;24.870;2022-07-10T06:48:13;4.68;;;3.08;;
46411;SDS011;32113;42.012;24.870;2022-07-10T06:50:40;7.78;;;3.58;;
46411;SDS011;32113;42.012;24.870;2022-07-10T06:53:06;4.25;;;3.00;;
46411;SDS011;32113;42.012;24.870;2022-07-10T06:55:32;6.18;;;2.92;;
46411;SDS011;32113;42.012;24.870;2022-07-10T06:57:58;7.72;;;3.85;;
46411;SDS011;32113;42.012;24.870;2022-07-10T07:00:24;5.75;;;2.85;;
46411;SDS011;32113;42.012;24.870;2022-07-10T07:02:50;5.15;;;2.55;;
46411;SDS011;32113;42.012;24.870;2022-07-10T07:05:16;4.32;;;2.80;;
46411;SDS011;32113;42.012;24.870;2022-07-10T07:07:41;4.43;;;3.10;;
46411;SDS011;32113;42.012;24.870;2022-07-10T07:10:07;3.60;;;2.60;;
46411;SDS011;32113;42.012;24.870;2022-07-10T07:12:34;4.43;;;2.90;;
46411;SDS011;32113;42.012;24.870;2022-07-10T07:15:00;5.45;;;3.33;;
46411;SDS011;32113;42.012;24.870;2022-07-10T07:17:25;6.10;;;3.20;;
46411;SDS011;32113;42.012;24.870;2022-07-10T07:19:58;7.20;;;3.05;;
46411;SDS011;32113;42.012;24.870;2022-07-10T07:22:43;3.47;;;3.15;;
46411;SDS011;32113;42.012;24.870;2022-07-10T07:25:27;4.18;;;3.13;;
46411;SDS011;32113;42.012;24.870;2022-07-10T07:27:53;5.88;;;3.30;;
46411;SDS011;32113;42.012;24.870;2022-07-10T07:30:18;6.55;;;3.20;;
46411;SDS011;32113;42.012;24.870;2022-07-10T07:32:45;3.85;;;3.25;;
46411;SDS011;32113;42.012;24.870;2022-07-10T07:35:11;3.90;;;3.50;;
46411;SDS011;32113;42.012;24.870;2022-07-10T07:37:39;4.20;;;3.20;;
46411;SDS011;32113;42.012;24.870;2022-07-10T07:40:12;5.10;;;3.45;;
46411;SDS011;32113;42.012;24.870;2022-07-10T07:42:40;4.28;;;3.50;;
46411;SDS011;32113;42.012;24.870;2022-07-10T07:45:06;6.57;;;4.38;;
46411;SDS011;32113;42.012;24.870;2022-07-10T07:47:52;5.53;;;3.55;;
46411;SDS011;32113;42.012;24.870;2022-07-10T07:50:21;4.38;;;3.97;;
46411;SDS011;32113;42.012;24.870;2022-07-10T07:52:48;4.50;;;3.80;;
46411;SDS011;32113;42.012;24.870;2022-07-10T07:55:15;5.68;;;4.00;;
46411;SDS011;32113;42.012;24.870;2022-07-10T07:57:42;5.93;;;4.53;;
46411;SDS011;32113;42.012;24.870;2022-07-10T08:00:08;4.80;;;3.75;;
46411;SDS011;32113;42.012;24.870;2022-07-10T08:05:01;6.00;;;4.22;;
46411;SDS011;32113;42.012;24.870;2022-07-10T08:07:36;4.60;;;3.72;;
46411;SDS011;32113;42.012;24.870;2022-07-10T08:10:08;6.43;;;3.83;;
46411;SDS011;32113;42.012;24.870;2022-07-10T08:12:35;5.60;;;4.15;;
46411;SDS011;32113;42.012;24.870;2022-07-10T08:15:01;6.00;;;4.00;;
46411;SDS011;32113;42.012;24.870;2022-07-10T08:17:27;4.45;;;3.92;;
46411;SDS011;32113;42.012;24.870;2022-07-10T08:19:53;6.22;;;4.10;;
46411;SDS011;32113;42.012;24.870;2022-07-10T08:22:18;4.57;;;3.50;;
46411;SDS011;32113;42.012;24.870;2022-07-10T08:24:44;4.70;;;3.63;;
46411;SDS011;32113;42.012;24.870;2022-07-10T08:27:09;7.22;;;3.72;;
46411;SDS011;32113;42.012;24.870;2022-07-10T08:29:35;4.63;;;3.50;;
46411;SDS011;32113;42.012;24.870;2022-07-10T08:32:00;4.70;;;3.22;;
46411;SDS011;32113;42.012;24.870;2022-07-10T08:34:26;6.15;;;3.70;;
46411;SDS011;32113;42.012;24.870;2022-07-10T08:36:55;7.15;;;3.58;;
46411;SDS011;32113;42.012;24.870;2022-07-10T08:39:20;6.05;;;3.58;;
46411;SDS011;32113;42.012;24.870;2022-07-10T08:41:47;6.35;;;3.53;;
46411;SDS011;32113;42.012;24.870;2022-07-10T08:44:16;5.43;;;3.88;;
46411;SDS011;32113;42.012;24.870;2022-07-10T08:46:42;6.80;;;4.20;;
46411;SDS011;32113;42.012;24.870;2022-07-10T08:49:09;5.03;;;4.07;;
46411;SDS011;32113;42.012;24.870;2022-07-10T08:51:39;5.22;;;3.75;;
46411;SDS011;32113;42.012;24.870;2022-07-10T08:54:10;5.88;;;3.78;;
46411;SDS011;32113;42.012;24.870;2022-07-10T08:56:40;5.82;;;3.90;;
46411;SDS011;32113;42.012;24.870;2022-07-10T08:59:06;8.80;;;3.72;;
46411;SDS011;32113;42.012;24.870;2022-07-10T09:01:32;5.70;;;4.43;;
46411;SDS011;32113;42.012;24.870;2022-07-10T09:03:58;7.18;;;4.80;;
46411;SDS011;32113;42.012;24.870;2022-07-10T09:06:24;5.90;;;4.68;;
46411;SDS011;32113;42.012;24.870;2022-07-10T09:09:02;5.15;;;4.72;;
46411;SDS011;32113;42.012;24.870;2022-07-10T09:11:29;5.50;;;4.10;;
46411;SDS011;32113;42.012;24.870;2022-07-10T09:13:56;5.95;;;4.50;;
46411;SDS011;32113;42.012;24.870;2022-07-10T09:18:48;7.35;;;3.90;;
46411;SDS011;32113;42.012;24.870;2022-07-10T09:21:13;6.57;;;4.75;;
46411;SDS011;32113;42.012;24.870;2022-07-10T09:23:38;9.60;;;4.75;;
46411;SDS011;32113;42.012;24.870;2022-07-10T09:26:04;7.20;;;4.63;;
46411;SDS011;32113;42.012;24.870;2022-07-10T09:28:29;8.18;;;4.35;;
46411;SDS011;32113;42.012;24.870;2022-07-10T09:30:55;7.18;;;4.40;;
46411;SDS011;32113;42.012;24.870;2022-07-10T09:33:25;5.22;;;4.43;;
46411;SDS011;32113;42.012;24.870;2022-07-10T09:35:55;6.82;;;4.32;;
46411;SDS011;32113;42.012;24.870;2022-07-10T09:41:29;7.40;;;4.53;;
46411;SDS011;32113;42.012;24.870;2022-07-10T09:44:05;6.03;;;4.15;;
46411;SDS011;32113;42.012;24.870;2022-07-10T09:46:38;6.50;;;4.90;;
46411;SDS011;32113;42.012;24.870;2022-07-10T09:49:09;5.30;;;4.35;;
46411;SDS011;32113;42.012;24.870;2022-07-10T09:54:02;5.85;;;4.47;;
46411;SDS011;32113;42.012;24.870;2022-07-10T09:56:33;7.63;;;4.88;;
46411;SDS011;32113;42.012;24.870;2022-07-10T09:59:09;4.53;;;4.13;;
46411;SDS011;32113;42.012;24.870;2022-07-10T10:01:42;5.63;;;4.55;;
46411;SDS011;32113;42.012;24.870;2022-07-10T10:04:11;7.47;;;4.38;;
46411;SDS011;32113;42.012;24.870;2022-07-10T10:06:37;6.88;;;4.07;;
46411;SDS011;32113;42.012;24.870;2022-07-10T10:11:33;4.60;;;3.92;;
46411;SDS011;32113;42.012;24.870;2022-07-10T10:14:02;6.05;;;3.97;;
46411;SDS011;32113;42.012;24.870;2022-07-10T10:16:28;9.27;;;4.23;;
46411;SDS011;32113;42.012;24.870;2022-07-10T10:18:55;5.60;;;3.75;;
46411;SDS011;32113;42.012;24.870;2022-07-10T10:21:40;9.55;;;4.60;;
46411;SDS011;32113;42.012;24.870;2022-07-10T10:24:05;6.90;;;4.13;;
46411;SDS011;32113;42.012;24.870;2022-07-10T10:26:31;5.38;;;4.55;;
46411;SDS011;32113;42.012;24.870;2022-07-10T10:28:59;4.85;;;4.35;;
46411;SDS011;32113;42.012;24.870;2022-07-10T10:31:26;5.25;;;4.68;;
46411;SDS011;32113;42.012;24.870;2022-07-10T10:33:54;5.43;;;3.95;;
46411;SDS011;32113;42.012;24.870;2022-07-10T10:39:10;5.43;;;4.80;;
46411;SDS011;32113;42.012;24.870;2022-07-10T10:41:41;5.18;;;4.68;;
46411;SDS011;32113;42.012;24.870;2022-07-10T10:49:15;6.25;;;4.68;;
46411;SDS011;32113;42.012;24.870;2022-07-10T10:51:56;6.15;;;4.97;;
46411;SDS011;32113;42.012;24.870;2022-07-10T10:54:34;6.80;;;4.82;;
46411;SDS011;32113;42.012;24.870;2022-07-10T10:57:23;5.55;;;4.43;;
46411;SDS011;32113;42.012;24.870;2022-07-10T11:00:07;5.75;;;4.82;;
46411;SDS011;32113;42.012;24.870;2022-07-10T11:02:36;6.15;;;4.85;;
46411;SDS011;32113;42.012;24.870;2022-07-10T11:07:56;5.60;;;4.60;;
46411;SDS011;32113;42.012;24.870;2022-07-10T11:10:28;5.68;;;4.32;;
46411;SDS011;32113;42.012;24.870;2022-07-10T11:15:29;4.82;;;4.40;;
46411;SDS011;32113;42.012;24.870;2022-07-10T11:17:58;5.47;;;4.97;;
46411;SDS011;32113;42.012;24.870;2022-07-10T11:20:30;8.57;;;5.03;;
46411;SDS011;32113;42.012;24.870;2022-07-10T11:26:04;6.85;;;4.18;;
46411;SDS011;32113;42.012;24.870;2022-07-10T11:31:08;5.50;;;4.20;;
46411;SDS011;32113;42.012;24.870;2022-07-10T11:33:41;4.60;;;4.05;;
46411;SDS011;32113;42.012;24.870;2022-07-10T11:36:18;4.85;;;4.30;;
46411;SDS011;32113;42.012;24.870;2022-07-10T11:38:56;4.10;;;3.70;;
46411;SDS011;32113;42.012;24.870;2022-07-10T11:41:23;4.20;;;3.80;;
46411;SDS011;32113;42.012;24.870;2022-07-10T11:43:56;6.30;;;4.13;;
46411;SDS011;32113;42.012;24.870;2022-07-10T11:46:33;6.35;;;3.97;;
46411;SDS011;32113;42.012;24.870;2022-07-10T11:49:02;6.45;;;4.03;;
46411;SDS011;32113;42.012;24.870;2022-07-10T11:54:15;7.47;;;5.85;;
46411;SDS011;32113;42.012;24.870;2022-07-10T11:56:46;4.75;;;4.13;;
46411;SDS011;32113;42.012;24.870;2022-07-10T11:59:13;4.40;;;3.78;;
46411;SDS011;32113;42.012;24.870;2022-07-10T12:01:41;7.00;;;4.35;;
46411;SDS011;32113;42.012;24.870;2022-07-10T12:04:07;5.93;;;4.35;;
46411;SDS011;32113;42.012;24.870;2022-07-10T12:06:35;5.60;;;4.00;;
46411;SDS011;32113;42.012;24.870;2022-07-10T12:09:24;5.72;;;4.28;;
46411;SDS011;32113;42.012;24.870;2022-07-10T12:14:23;4.15;;;3.75;;
46411;SDS011;32113;42.012;24.870;2022-07-10T12:16:51;5.45;;;3.53;;
46411;SDS011;32113;42.012;24.870;2022-07-10T12:19:18;4.95;;;3.58;;
46411;SDS011;32113;42.012;24.870;2022-07-10T12:21:47;3.50;;;3.20;;
46411;SDS011;32113;42.012;24.870;2022-07-10T12:24:15;3.88;;;3.33;;
46411;SDS011;32113;42.012;24.870;2022-07-10T12:26:42;5.82;;;4.10;;
46411;SDS011;32113;42.012;24.870;2022-07-10T12:31:47;4.15;;;3.75;;
46411;SDS011;32113;42.012;24.870;2022-07-10T12:34:18;7.13;;;4.10;;
46411;SDS011;32113;42.012;24.870;2022-07-10T12:39:10;4.63;;;3.45;;
46411;SDS011;32113;42.012;24.870;2022-07-10T12:44:38;4.85;;;3.67;;
46411;SDS011;32113;42.012;24.870;2022-07-10T12:47:08;4.40;;;3.97;;
46411;SDS011;32113;42.012;24.870;2022-07-10T12:49:49;8.02;;;3.90;;
46411;SDS011;32113;42.012;24.870;2022-07-10T12:52:19;4.35;;;3.42;;
46411;SDS011;32113;42.012;24.870;2022-07-10T12:54:45;4.03;;;3.53;;
46411;SDS011;32113;42.012;24.870;2022-07-10T12:57:10;4.60;;;3.55;;
46411;SDS011;32113;42.012;24.870;2022-07-10T12:59:36;4.00;;;3.60;;
46411;SDS011;32113;42.012;24.870;2022-07-10T13:02:15;4.57;;;3.42;;
46411;SDS011;32113;42.012;24.870;2022-07-10T13:04:51;4.13;;;3.10;;
46411;SDS011;32113;42.012;24.870;2022-07-10T13:07:17;3.90;;;3.47;;
46411;SDS011;32113;42.012;24.870;2022-07-10T13:09:42;6.13;;;3.40;;
46411;SDS011;32113;42.012;24.870;2022-07-10T13:12:09;3.75;;;3.45;;
46411;SDS011;32113;42.012;24.870;2022-07-10T13:14:34;4.45;;;3.08;;
46411;SDS011;32113;42.012;24.870;2022-07-10T13:17:00;3.97;;;3.05;;
46411;SDS011;32113;42.012;24.870;2022-07-10T13:19:25;3.55;;;3.17;;
46411;SDS011;32113;42.012;24.870;2022-07-10T13:21:51;3.97;;;3.10;;
46411;SDS011;32113;42.012;24.870;2022-07-10T13:24:16;3.17;;;2.88;;
46411;SDS011;32113;42.012;24.870;2022-07-10T13:26:42;4.85;;;3.25;;
46411;SDS011;32113;42.012;24.870;2022-07-10T13:29:08;4.50;;;3.28;;
46411;SDS011;32113;42.012;24.870;2022-07-10T13:31:33;3.53;;;3.05;;
46411;SDS011;32113;42.012;24.870;2022-07-10T13:33:59;4.65;;;3.10;;
46411;SDS011;32113;42.012;24.870;2022-07-10T13:36:24;4.10;;;3.50;;
46411;SDS011;32113;42.012;24.870;2022-07-10T13:38:50;6.93;;;3.70;;
46411;SDS011;32113;42.012;24.870;2022-07-10T13:41:20;5.20;;;3.20;;
46411;SDS011;32113;42.012;24.870;2022-07-10T13:43:45;4.75;;;3.28;;
46411;SDS011;32113;42.012;24.870;2022-07-10T13:46:11;3.63;;;2.72;;
46411;SDS011;32113;42.012;24.870;2022-07-10T13:48:36;4.35;;;3.30;;
46411;SDS011;32113;42.012;24.870;2022-07-10T13:51:02;4.53;;;3.03;;
46411;SDS011;32113;42.012;24.870;2022-07-10T13:53:27;5.35;;;3.00;;
46411;SDS011;32113;42.012;24.870;2022-07-10T13:55:53;4.50;;;2.97;;
46411;SDS011;32113;42.012;24.870;2022-07-10T13:58:18;3.47;;;3.17;;
46411;SDS011;32113;42.012;24.870;2022-07-10T14:00:45;3.90;;;3.13;;
46411;SDS011;32113;42.012;24.870;2022-07-10T14:03:11;4.72;;;3.30;;
46411;SDS011;32113;42.012;24.870;2022-07-10T14:05:37;3.40;;;3.00;;
46411;SDS011;32113;42.012;24.870;2022-07-10T14:08:02;5.65;;;3.10;;
46411;SDS011;32113;42.012;24.870;2022-07-10T14:10:28;4.97;;;3.20;;
46411;SDS011;32113;42.012;24.870;2022-07-10T14:12:54;4.63;;;2.90;;
46411;SDS011;32113;42.012;24.870;2022-07-10T14:15:19;14.05;;;3.50;;
46411;SDS011;32113;42.012;24.870;2022-07-10T14:17:45;5.53;;;3.28;;
46411;SDS011;32113;42.012;24.870;2022-07-10T14:20:11;3.63;;;2.92;;
46411;SDS011;32113;42.012;24.870;2022-07-10T14:22:37;3.63;;;3.15;;
46411;SDS011;32113;42.012;24.870;2022-07-10T14:25:03;3.67;;;2.90;;
46411;SDS011;32113;42.012;24.870;2022-07-10T14:27:33;4.50;;;3.30;;
46411;SDS011;32113;42.012;24.870;2022-07-10T14:29:59;6.05;;;3.70;;
46411;SDS011;32113;42.012;24.870;2022-07-10T14:32:24;3.50;;;3.00;;
46411;SDS011;32113;42.012;24.870;2022-07-10T14:34:50;4.18;;;3.33;;
46411;SDS011;32113;42.012;24.870;2022-07-10T14:37:15;5.25;;;3.30;;
46411;SDS011;32113;42.012;24.870;2022-07-10T14:39:41;6.63;;;3.55;;
46411;SDS011;32113;42.012;24.870;2022-07-10T14:42:07;5.75;;;4.35;;
46411;SDS011;32113;42.012;24.870;2022-07-10T14:44:34;8.05;;;5.78;;
46411;SDS011;32113;42.012;24.870;2022-07-10T14:46:59;7.25;;;4.97;;
46411;SDS011;32113;42.012;24.870;2022-07-10T14:49:25;6.03;;;4.10;;
46411;SDS011;32113;42.012;24.870;2022-07-10T14:51:50;4.47;;;3.65;;
46411;SDS011;32113;42.012;24.870;2022-07-10T14:54:16;4.25;;;3.63;;
46411;SDS011;32113;42.012;24.870;2022-07-10T14:56:42;13.23;;;4.65;;
46411;SDS011;32113;42.012;24.870;2022-07-10T14:59:08;11.80;;;3.97;;
46411;SDS011;32113;42.012;24.870;2022-07-10T15:01:33;6.25;;;4.20;;
46411;SDS011;32113;42.012;24.870;2022-07-10T15:03:59;6.72;;;3.70;;
46411;SDS011;32113;42.012;24.870;2022-07-10T15:06:24;4.07;;;3.38;;
46411;SDS011;32113;42.012;24.870;2022-07-10T15:08:50;5.43;;;3.75;;
46411;SDS011;32113;42.012;24.870;2022-07-10T15:11:16;5.72;;;3.70;;
46411;SDS011;32113;42.012;24.870;2022-07-10T15:13:42;7.60;;;4.10;;
46411;SDS011;32113;42.012;24.870;2022-07-10T15:16:07;6.07;;;3.47;;
46411;SDS011;32113;42.012;24.870;2022-07-10T15:18:33;10.20;;;3.17;;